sensor_id;sensor_type;location;lat;lon;timestamp;pressure;altitude;pressure_sealevel;temperature;humidity
49841;BME280;35738;49.890;5.930;2023-02-11T00:01:14;97567.94;;;0.98;100.00
49841;BME280;35738;49.890;5.930;2023-02-11T00:03:42;97567.09;;;0.97;100.00
49841;BME280;35738;49.890;5.930;2023-02-11T00:06:10;97566.72;;;0.93;100.00
49841;BME280;35738;49.890;5.930;2023-02-11T00:08:37;97573.34;;;0.98;100.00
49841;BME280;35738;49.890;5.930;2023-02-11T00:11:04;97574.25;;;0.91;100.00
49841;BME280;35738;49.890;5.930;2023-02-11T00:13:31;97568.38;;;0.94;100.00
49841;BME280;35738;49.890;5.930;2023-02-11T00:15:58;97576.59;;;0.88;100.00
49841;BME280;35738;49.890;5.930;2023-02-11T00:18:24;97555.16;;;0.86;100.00
49841;BME280;35738;49.890;5.930;2023-02-11T00:20:51;97540.78;;;0.86;100.00
49841;BME280;35738;49.890;5.930;2023-02-11T00:23:17;97549.59;;;0.81;100.00
49841;BME280;35738;49.890;5.930;2023-02-11T00:25:44;97557.13;;;0.79;100.00
49841;BME280;35738;49.890;5.930;2023-02-11T00:28:11;97552.06;;;0.83;100.00
49841;BME280;35738;49.890;5.930;2023-02-11T00:30:38;97539.59;;;0.82;100.00
49841;BME280;35738;49.890;5.930;2023-02-11T00:33:05;97526.50;;;0.79;100.00
49841;BME280;35738;49.890;5.930;2023-02-11T00:35:32;97518.59;;;0.77;100.00
49841;BME280;35738;49.890;5.930;2023-02-11T00:37:58;97522.72;;;0.80;100.00
49841;BME280;35738;49.890;5.930;2023-02-11T00:40:25;97532.44;;;0.87;100.00
49841;BME280;35738;49.890;5.930;2023-02-11T00:42:52;97526.56;;;0.90;100.00
49841;BME280;35738;49.890;5.930;2023-02-11T00:45:18;97522.34;;;0.94;100.00
49841;BME280;35738;49.890;5.930;2023-02-11T00:47:46;97531.34;;;1.07;100.00
49841;BME280;35738;49.890;5.930;2023-02-11T00:50:13;97536.53;;;1.08;100.00
49841;BME280;35738;49.890;5.930;2023-02-11T00:52:40;97533.47;;;1.05;100.00
49841;BME280;35738;49.890;5.930;2023-02-11T00:55:07;97525.56;;;1.03;100.00
49841;BME280;35738;49.890;5.930;2023-02-11T00:57:34;97535.34;;;1.04;100.00
49841;BME280;35738;49.890;5.930;2023-02-11T01:00:00;97511.03;;;0.98;100.00
49841;BME280;35738;49.890;5.930;2023-02-11T01:02:27;97525.84;;;1.13;100.00
49841;BME280;35738;49.890;5.930;2023-02-11T01:04:54;97527.72;;;1.13;100.00
49841;BME280;35738;49.890;5.930;2023-02-11T01:07:20;97520.28;;;1.08;100.00
49841;BME280;35738;49.890;5.930;2023-02-11T01:09:47;97519.69;;;1.06;100.00
49841;BME280;35738;49.890;5.930;2023-02-11T01:12:13;97532.09;;;1.14;100.00
49841;BME280;35738;49.890;5.930;2023-02-11T01:14:40;97529.31;;;1.02;100.00
49841;BME280;35738;49.890;5.930;2023-02-11T01:17:07;97532.84;;;1.03;100.00
49841;BME280;35738;49.890;5.930;2023-02-11T01:19:35;97529.84;;;1.11;100.00
49841;BME280;35738;49.890;5.930;2023-02-11T01:22:03;97530.19;;;1.14;100.00
49841;BME280;35738;49.890;5.930;2023-02-11T01:24:30;97512.16;;;1.08;100.00
49841;BME280;35738;49.890;5.930;2023-02-11T01:26:57;97514.41;;;1.11;100.00
49841;BME280;35738;49.890;5.930;2023-02-11T01:29:24;97523.91;;;1.02;100.00
49841;BME280;35738;49.890;5.930;2023-02-11T01:31:51;97503.50;;;1.00;100.00
49841;BME280;35738;49.890;5.930;2023-02-11T01:34:17;97510.00;;;0.99;100.00
49841;BME280;35738;49.890;5.930;2023-02-11T01:36:44;97505.03;;;0.95;100.00
49841;BME280;35738;49.890;5.930;2023-02-11T01:39:11;97515.28;;;0.93;100.00
49841;BME280;35738;49.890;5.930;2023-02-11T01:41:37;97496.16;;;0.88;100.00
49841;BME280;35738;49.890;5.930;2023-02-11T01:46:49;97499.47;;;0.90;100.00
49841;BME280;35738;49.890;5.930;2023-02-11T01:49:26;97497.44;;;0.86;100.00
49841;BME280;35738;49.890;5.930;2023-02-11T01:54:32;97499.94;;;0.87;100.00
49841;BME280;35738;49.890;5.930;2023-02-11T01:57:21;97493.09;;;0.85;100.00
49841;BME280;35738;49.890;5.930;2023-02-11T02:02:50;97483.06;;;0.85;100.00
49841;BME280;35738;49.890;5.930;2023-02-11T02:05:33;97486.97;;;0.89;100.00
49841;BME280;35738;49.890;5.930;2023-02-11T02:08:24;97474.34;;;0.83;100.00
49841;BME280;35738;49.890;5.930;2023-02-11T02:10:55;97473.75;;;0.81;100.00
49841;BME280;35738;49.890;5.930;2023-02-11T02:13:24;97465.03;;;0.79;100.00
49841;BME280;35738;49.890;5.930;2023-02-11T02:16:03;97474.81;;;0.80;100.00
49841;BME280;35738;49.890;5.930;2023-02-11T02:27:54;97460.97;;;0.70;100.00
49841;BME280;35738;49.890;5.930;2023-02-11T02:36:06;97449.03;;;0.59;100.00
49841;BME280;35738;49.890;5.930;2023-02-11T02:38:52;97451.88;;;0.64;100.00
49841;BME280;35738;49.890;5.930;2023-02-11T02:41:26;97441.03;;;0.64;100.00
49841;BME280;35738;49.890;5.930;2023-02-11T02:43:54;97443.38;;;0.61;100.00
49841;BME280;35738;49.890;5.930;2023-02-11T02:46:24;97446.09;;;0.61;100.00
49841;BME280;35738;49.890;5.930;2023-02-11T02:48:53;97457.13;;;0.59;100.00
49841;BME280;35738;49.890;5.930;2023-02-11T02:57:38;97457.50;;;0.63;100.00
49841;BME280;35738;49.890;5.930;2023-02-11T03:06:16;97458.72;;;0.49;100.00
49841;BME280;35738;49.890;5.930;2023-02-11T03:08:52;97471.00;;;0.51;100.00
49841;BME280;35738;49.890;5.930;2023-02-11T03:11:23;97481.88;;;0.63;100.00
49841;BME280;35738;49.890;5.930;2023-02-11T03:13:51;97478.19;;;0.57;100.00
49841;BME280;35738;49.890;5.930;2023-02-11T03:16:23;97478.72;;;0.66;100.00
49841;BME280;35738;49.890;5.930;2023-02-11T03:19:21;97476.84;;;0.67;100.00
49841;BME280;35738;49.890;5.930;2023-02-11T03:21:50;97487.22;;;0.51;100.00
49841;BME280;35738;49.890;5.930;2023-02-11T03:24:28;97483.91;;;0.49;100.00
49841;BME280;35738;49.890;5.930;2023-02-11T03:27:00;97486.25;;;0.46;100.00
49841;BME280;35738;49.890;5.930;2023-02-11T03:32:23;97469.41;;;0.44;100.00
49841;BME280;35738;49.890;5.930;2023-02-11T03:35:08;97480.63;;;0.47;100.00
49841;BME280;35738;49.890;5.930;2023-02-11T03:37:44;97483.53;;;0.46;100.00
49841;BME280;35738;49.890;5.930;2023-02-11T03:40:20;97464.38;;;0.29;100.00
49841;BME280;35738;49.890;5.930;2023-02-11T03:42:52;97457.09;;;0.29;100.00
49841;BME280;35738;49.890;5.930;2023-02-11T03:45:22;97451.97;;;0.21;100.00
49841;BME280;35738;49.890;5.930;2023-02-11T03:47:59;97462.44;;;0.18;100.00
49841;BME280;35738;49.890;5.930;2023-02-11T03:50:29;97467.00;;;0.17;100.00
49841;BME280;35738;49.890;5.930;2023-02-11T03:52:58;97453.63;;;0.04;100.00
49841;BME280;35738;49.890;5.930;2023-02-11T03:55:27;97447.63;;;0.02;100.00
49841;BME280;35738;49.890;5.930;2023-02-11T03:57:55;97448.66;;;0.01;100.00
49841;BME280;35738;49.890;5.930;2023-02-11T04:00:32;97459.91;;;-0.02;100.00
49841;BME280;35738;49.890;5.930;2023-02-11T04:02:59;97459.75;;;-0.07;100.00
49841;BME280;35738;49.890;5.930;2023-02-11T04:05:26;97456.50;;;-0.16;100.00
49841;BME280;35738;49.890;5.930;2023-02-11T04:07:53;97450.03;;;-0.15;100.00
49841;BME280;35738;49.890;5.930;2023-02-11T04:10:20;97449.66;;;-0.18;100.00
49841;BME280;35738;49.890;5.930;2023-02-11T04:12:46;97443.88;;;-0.22;100.00
49841;BME280;35738;49.890;5.930;2023-02-11T04:15:13;97437.81;;;-0.17;100.00
49841;BME280;35738;49.890;5.930;2023-02-11T04:17:40;97436.59;;;-0.21;100.00
49841;BME280;35738;49.890;5.930;2023-02-11T04:20:07;97446.97;;;-0.18;100.00
49841;BME280;35738;49.890;5.930;2023-02-11T04:22:34;97428.47;;;-0.21;100.00
49841;BME280;35738;49.890;5.930;2023-02-11T04:25:02;97429.59;;;-0.29;100.00
49841;BME280;35738;49.890;5.930;2023-02-11T04:27:29;97431.25;;;-0.28;100.00
49841;BME280;35738;49.890;5.930;2023-02-11T04:29:55;97433.34;;;-0.30;100.00
49841;BME280;35738;49.890;5.930;2023-02-11T04:32:22;97428.78;;;-0.29;100.00
49841;BME280;35738;49.890;5.930;2023-02-11T04:34:49;97425.03;;;-0.28;100.00
49841;BME280;35738;49.890;5.930;2023-02-11T04:37:15;97414.97;;;-0.21;100.00
49841;BME280;35738;49.890;5.930;2023-02-11T04:39:42;97417.81;;;-0.16;100.00
49841;BME280;35738;49.890;5.930;2023-02-11T04:42:09;97415.50;;;-0.13;100.00
49841;BME280;35738;49.890;5.930;2023-02-11T04:44:35;97407.75;;;-0.09;100.00
49841;BME280;35738;49.890;5.930;2023-02-11T04:47:02;97399.34;;;-0.01;100.00
49841;BME280;35738;49.890;5.930;2023-02-11T04:49:28;97396.38;;;0.07;100.00
49841;BME280;35738;49.890;5.930;2023-02-11T04:51:55;97387.94;;;0.15;100.00
49841;BME280;35738;49.890;5.930;2023-02-11T04:54:22;97399.53;;;0.22;100.00
49841;BME280;35738;49.890;5.930;2023-02-11T04:56:48;97403.81;;;0.12;100.00
49841;BME280;35738;49.890;5.930;2023-02-11T04:59:16;97415.16;;;0.20;100.00
49841;BME280;35738;49.890;5.930;2023-02-11T05:01:43;97431.47;;;0.32;100.00
49841;BME280;35738;49.890;5.930;2023-02-11T05:04:09;97436.47;;;0.47;100.00
49841;BME280;35738;49.890;5.930;2023-02-11T05:06:37;97445.63;;;0.64;100.00
49841;BME280;35738;49.890;5.930;2023-02-11T05:09:05;97448.94;;;0.66;100.00
49841;BME280;35738;49.890;5.930;2023-02-11T05:11:31;97449.63;;;0.80;100.00
49841;BME280;35738;49.890;5.930;2023-02-11T05:13:58;97450.44;;;0.80;100.00
49841;BME280;35738;49.890;5.930;2023-02-11T05:16:25;97459.38;;;0.81;100.00
49841;BME280;35738;49.890;5.930;2023-02-11T05:18:51;97457.06;;;0.84;100.00
49841;BME280;35738;49.890;5.930;2023-02-11T05:21:21;97466.59;;;0.87;100.00
49841;BME280;35738;49.890;5.930;2023-02-11T05:23:48;97456.09;;;0.79;100.00
49841;BME280;35738;49.890;5.930;2023-02-11T05:26:14;97448.94;;;0.66;100.00
49841;BME280;35738;49.890;5.930;2023-02-11T05:28:42;97470.69;;;0.59;100.00
49841;BME280;35738;49.890;5.930;2023-02-11T05:31:09;97465.41;;;0.64;100.00
49841;BME280;35738;49.890;5.930;2023-02-11T05:33:36;97465.31;;;0.71;100.00
49841;BME280;35738;49.890;5.930;2023-02-11T05:36:06;97463.66;;;0.70;100.00
49841;BME280;35738;49.890;5.930;2023-02-11T05:38:34;97452.38;;;0.73;100.00
49841;BME280;35738;49.890;5.930;2023-02-11T05:41:02;97463.91;;;0.69;100.00
49841;BME280;35738;49.890;5.930;2023-02-11T05:43:29;97450.59;;;0.67;100.00
49841;BME280;35738;49.890;5.930;2023-02-11T05:45:56;97443.88;;;0.70;100.00
49841;BME280;35738;49.890;5.930;2023-02-11T05:48:22;97447.88;;;0.67;100.00
49841;BME280;35738;49.890;5.930;2023-02-11T05:50:49;97455.78;;;0.69;100.00
49841;BME280;35738;49.890;5.930;2023-02-11T05:53:16;97452.31;;;0.61;100.00
49841;BME280;35738;49.890;5.930;2023-02-11T05:55:42;97456.00;;;0.67;100.00
49841;BME280;35738;49.890;5.930;2023-02-11T05:58:09;97456.47;;;0.64;100.00
49841;BME280;35738;49.890;5.930;2023-02-11T06:00:36;97446.53;;;0.58;100.00
49841;BME280;35738;49.890;5.930;2023-02-11T06:03:03;97438.41;;;0.58;100.00
49841;BME280;35738;49.890;5.930;2023-02-11T06:05:30;97434.44;;;0.60;100.00
49841;BME280;35738;49.890;5.930;2023-02-11T06:07:57;97433.97;;;0.63;100.00
49841;BME280;35738;49.890;5.930;2023-02-11T06:10:24;97432.00;;;0.71;100.00
49841;BME280;35738;49.890;5.930;2023-02-11T06:12:50;97438.94;;;0.67;100.00
49841;BME280;35738;49.890;5.930;2023-02-11T06:15:17;97426.44;;;0.66;100.00
49841;BME280;35738;49.890;5.930;2023-02-11T06:17:44;97424.88;;;0.58;100.00
49841;BME280;35738;49.890;5.930;2023-02-11T06:20:10;97421.84;;;0.66;100.00
49841;BME280;35738;49.890;5.930;2023-02-11T06:22:37;97427.50;;;0.64;100.00
49841;BME280;35738;49.890;5.930;2023-02-11T06:25:04;97419.47;;;0.58;100.00
49841;BME280;35738;49.890;5.930;2023-02-11T06:27:31;97425.38;;;0.67;100.00
49841;BME280;35738;49.890;5.930;2023-02-11T06:29:57;97417.34;;;0.60;100.00
49841;BME280;35738;49.890;5.930;2023-02-11T06:32:26;97420.06;;;0.60;100.00
49841;BME280;35738;49.890;5.930;2023-02-11T06:35:12;97429.84;;;0.61;100.00
49841;BME280;35738;49.890;5.930;2023-02-11T06:37:40;97442.22;;;0.69;100.00
49841;BME280;35738;49.890;5.930;2023-02-11T06:40:07;97436.44;;;0.65;100.00
49841;BME280;35738;49.890;5.930;2023-02-11T06:42:34;97434.78;;;0.64;100.00
49841;BME280;35738;49.890;5.930;2023-02-11T06:45:02;97429.84;;;0.61;100.00
49841;BME280;35738;49.890;5.930;2023-02-11T06:47:31;97425.38;;;0.67;100.00
49841;BME280;35738;49.890;5.930;2023-02-11T06:49:58;97424.88;;;0.58;100.00
49841;BME280;35738;49.890;5.930;2023-02-11T06:52:24;97417.63;;;0.70;100.00
49841;BME280;35738;49.890;5.930;2023-02-11T06:54:51;97418.56;;;0.64;100.00
49841;BME280;35738;49.890;5.930;2023-02-11T06:57:18;97415.97;;;0.69;100.00
49841;BME280;35738;49.890;5.930;2023-02-11T06:59:44;97420.53;;;0.57;100.00
49841;BME280;35738;49.890;5.930;2023-02-11T07:02:11;97412.25;;;0.52;100.00
49841;BME280;35738;49.890;5.930;2023-02-11T07:04:38;97433.59;;;0.60;100.00
49841;BME280;35738;49.890;5.930;2023-02-11T07:07:04;97439.03;;;0.60;100.00
49841;BME280;35738;49.890;5.930;2023-02-11T07:09:31;97439.38;;;0.63;100.00
49841;BME280;35738;49.890;5.930;2023-02-11T07:11:58;97445.78;;;0.69;100.00
49841;BME280;35738;49.890;5.930;2023-02-11T07:14:24;97433.44;;;0.73;100.00
49841;BME280;35738;49.890;5.930;2023-02-11T07:16:51;97442.59;;;0.72;100.00
49841;BME280;35738;49.890;5.930;2023-02-11T07:19:17;97444.25;;;0.73;100.00
49841;BME280;35738;49.890;5.930;2023-02-11T07:21:44;97448.94;;;0.66;100.00
49841;BME280;35738;49.890;5.930;2023-02-11T07:24:11;97460.81;;;0.65;100.00
49841;BME280;35738;49.890;5.930;2023-02-11T07:26:38;97462.94;;;0.63;100.00
49841;BME280;35738;49.890;5.930;2023-02-11T07:29:05;97474.72;;;0.69;100.00
49841;BME280;35738;49.890;5.930;2023-02-11T07:31:32;97473.63;;;0.58;100.00
49841;BME280;35738;49.890;5.930;2023-02-11T07:34:00;97465.34;;;0.53;100.00
49841;BME280;35738;49.890;5.930;2023-02-11T07:36:28;97463.16;;;0.61;100.00
49841;BME280;35738;49.890;5.930;2023-02-11T07:38:56;97467.50;;;0.62;100.00
49841;BME280;35738;49.890;5.930;2023-02-11T07:41:24;97479.63;;;0.78;100.00
49841;BME280;35738;49.890;5.930;2023-02-11T07:43:51;97469.44;;;0.74;100.00
49841;BME280;35738;49.890;5.930;2023-02-11T07:46:23;97466.69;;;0.80;100.00
49841;BME280;35738;49.890;5.930;2023-02-11T07:48:51;97470.03;;;0.94;100.00
49841;BME280;35738;49.890;5.930;2023-02-11T07:51:23;97474.03;;;0.91;100.00
49841;BME280;35738;49.890;5.930;2023-02-11T07:53:50;97473.94;;;0.98;100.00
49841;BME280;35738;49.890;5.930;2023-02-11T07:56:18;97484.19;;;0.96;100.00
49841;BME280;35738;49.890;5.930;2023-02-11T07:58:46;97483.53;;;1.12;100.00
49841;BME280;35738;49.890;5.930;2023-02-11T08:01:17;97491.06;;;1.10;100.00
49841;BME280;35738;49.890;5.930;2023-02-11T08:03:44;97483.66;;;1.17;100.00
49841;BME280;35738;49.890;5.930;2023-02-11T08:06:13;97485.50;;;1.35;100.00
49841;BME280;35738;49.890;5.930;2023-02-11T08:08:41;97487.97;;;1.37;100.00
49841;BME280;35738;49.890;5.930;2023-02-11T08:11:11;97487.03;;;1.43;100.00
49841;BME280;35738;49.890;5.930;2023-02-11T08:13:38;97500.72;;;1.48;100.00
49841;BME280;35738;49.890;5.930;2023-02-11T08:16:05;97494.78;;;1.57;100.00
49841;BME280;35738;49.890;5.930;2023-02-11T08:18:34;97504.19;;;1.55;100.00
49841;BME280;35738;49.890;5.930;2023-02-11T08:21:08;97495.94;;;1.62;100.00
49841;BME280;35738;49.890;5.930;2023-02-11T08:23:37;97503.63;;;1.65;100.00
49841;BME280;35738;49.890;5.930;2023-02-11T08:26:06;97494.56;;;1.71;100.00
49841;BME280;35738;49.890;5.930;2023-02-11T08:28:35;97496.91;;;1.79;100.00
49841;BME280;35738;49.890;5.930;2023-02-11T08:31:10;97492.69;;;1.83;100.00
49841;BME280;35738;49.890;5.930;2023-02-11T08:33:37;97496.34;;;1.88;100.00
49841;BME280;35738;49.890;5.930;2023-02-11T08:36:14;97494.09;;;1.97;100.00
49841;BME280;35738;49.890;5.930;2023-02-11T08:38:41;97478.75;;;2.03;100.00
49841;BME280;35738;49.890;5.930;2023-02-11T08:41:08;97479.81;;;2.13;100.00
49841;BME280;35738;49.890;5.930;2023-02-11T08:43:36;97479.00;;;2.13;100.00
49841;BME280;35738;49.890;5.930;2023-02-11T08:46:08;97489.25;;;2.22;100.00
49841;BME280;35738;49.890;5.930;2023-02-11T08:48:35;97491.38;;;2.20;100.00
49841;BME280;35738;49.890;5.930;2023-02-11T08:51:11;97487.03;;;2.19;100.00
49841;BME280;35738;49.890;5.930;2023-02-11T08:53:38;97503.56;;;2.30;100.00
49841;BME280;35738;49.890;5.930;2023-02-11T08:56:05;97497.88;;;2.43;100.00
49841;BME280;35738;49.890;5.930;2023-02-11T08:58:32;97492.69;;;2.41;100.00
49841;BME280;35738;49.890;5.930;2023-02-11T09:00:59;97489.28;;;2.34;100.00
49841;BME280;35738;49.890;5.930;2023-02-11T09:03:25;97503.56;;;2.41;100.00
49841;BME280;35738;49.890;5.930;2023-02-11T09:05:52;97502.00;;;2.45;100.00
49841;BME280;35738;49.890;5.930;2023-02-11T09:08:20;97504.72;;;2.57;100.00
49841;BME280;35738;49.890;5.930;2023-02-11T09:10:47;97507.66;;;2.67;100.00
49841;BME280;35738;49.890;5.930;2023-02-11T09:13:14;97500.66;;;2.71;100.00
49841;BME280;35738;49.890;5.930;2023-02-11T09:15:45;97494.31;;;2.66;100.00
49841;BME280;35738;49.890;5.930;2023-02-11T09:18:12;97501.41;;;2.55;100.00
49841;BME280;35738;49.890;5.930;2023-02-11T09:20:40;97501.50;;;2.72;100.00
49841;BME280;35738;49.890;5.930;2023-02-11T09:23:06;97514.84;;;2.73;100.00
49841;BME280;35738;49.890;5.930;2023-02-11T09:25:33;97510.31;;;2.91;100.00
49841;BME280;35738;49.890;5.930;2023-02-11T09:27:59;97519.41;;;2.84;100.00
49841;BME280;35738;49.890;5.930;2023-02-11T09:30:26;97514.09;;;2.90;100.00
49841;BME280;35738;49.890;5.930;2023-02-11T09:32:53;97510.31;;;2.91;100.00
49841;BME280;35738;49.890;5.930;2023-02-11T09:35:19;97517.47;;;3.08;100.00
49841;BME280;35738;49.890;5.930;2023-02-11T09:37:46;97519.47;;;3.13;100.00
49841;BME280;35738;49.890;5.930;2023-02-11T09:40:14;97518.31;;;3.09;100.00
49841;BME280;35738;49.890;5.930;2023-02-11T09:42:50;97520.09;;;3.03;100.00
49841;BME280;35738;49.890;5.930;2023-02-11T09:45:21;97524.81;;;3.08;100.00
49841;BME280;35738;49.890;5.930;2023-02-11T09:48:04;97525.59;;;3.20;100.00
49841;BME280;35738;49.890;5.930;2023-02-11T09:50:39;97526.94;;;3.34;100.00
49841;BME280;35738;49.890;5.930;2023-02-11T09:55:45;97533.75;;;3.20;100.00
49841;BME280;35738;49.890;5.930;2023-02-11T10:01:00;97535.44;;;3.09;100.00
49841;BME280;35738;49.890;5.930;2023-02-11T10:06:41;97532.59;;;3.16;100.00
49841;BME280;35738;49.890;5.930;2023-02-11T10:20:21;97538.75;;;3.11;100.00
49841;BME280;35738;49.890;5.930;2023-02-11T10:22:54;97535.88;;;3.18;100.00
49841;BME280;35738;49.890;5.930;2023-02-11T10:25:32;97551.81;;;3.26;100.00
49841;BME280;35738;49.890;5.930;2023-02-11T10:28:05;97543.75;;;3.31;100.00
49841;BME280;35738;49.890;5.930;2023-02-11T10:30:41;97548.06;;;3.44;100.00
49841;BME280;35738;49.890;5.930;2023-02-11T10:33:55;97552.84;;;3.37;100.00
49841;BME280;35738;49.890;5.930;2023-02-11T10:36:29;97542.47;;;3.50;100.00
49841;BME280;35738;49.890;5.930;2023-02-11T10:38:58;97538.63;;;3.63;100.00
49841;BME280;35738;49.890;5.930;2023-02-11T10:41:33;97541.91;;;3.77;100.00
49841;BME280;35738;49.890;5.930;2023-02-11T10:44:05;97534.97;;;3.86;100.00
49841;BME280;35738;49.890;5.930;2023-02-11T10:46:35;97519.72;;;3.85;100.00
49841;BME280;35738;49.890;5.930;2023-02-11T10:49:03;97527.13;;;3.73;100.00
49841;BME280;35738;49.890;5.930;2023-02-11T10:51:31;97528.63;;;3.97;100.00
49841;BME280;35738;49.890;5.930;2023-02-11T10:56:34;97559.25;;;4.55;100.00
49841;BME280;35738;49.890;5.930;2023-02-11T10:59:26;97564.28;;;4.46;100.00
49841;BME280;35738;49.890;5.930;2023-02-11T11:02:02;97563.44;;;4.45;100.00
49841;BME280;35738;49.890;5.930;2023-02-11T11:07:11;97554.03;;;4.20;100.00
49841;BME280;35738;49.890;5.930;2023-02-11T11:17:36;97566.75;;;4.31;100.00
49841;BME280;35738;49.890;5.930;2023-02-11T11:20:14;97575.91;;;4.25;100.00
49841;BME280;35738;49.890;5.930;2023-02-11T11:22:42;97568.66;;;4.13;100.00
49841;BME280;35738;49.890;5.930;2023-02-11T11:25:26;97564.03;;;4.14;100.00
49841;BME280;35738;49.890;5.930;2023-02-11T11:27:56;97571.13;;;4.15;100.00
49841;BME280;35738;49.890;5.930;2023-02-11T11:30:30;97563.63;;;4.22;100.00
49841;BME280;35738;49.890;5.930;2023-02-11T11:32:59;97565.34;;;4.28;100.00
49841;BME280;35738;49.890;5.930;2023-02-11T11:35:28;97555.28;;;4.29;100.00
49841;BME280;35738;49.890;5.930;2023-02-11T11:38:01;97557.34;;;4.22;100.00
49841;BME280;35738;49.890;5.930;2023-02-11T11:40:30;97554.78;;;4.32;100.00
49841;BME280;35738;49.890;5.930;2023-02-11T11:43:16;97556.59;;;4.43;100.00
49841;BME280;35738;49.890;5.930;2023-02-11T11:45:56;97555.13;;;4.52;100.00
49841;BME280;35738;49.890;5.930;2023-02-11T11:48:31;97555.03;;;4.47;100.00
49841;BME280;35738;49.890;5.930;2023-02-11T11:51:03;97557.78;;;4.47;100.00
49841;BME280;35738;49.890;5.930;2023-02-11T11:53:44;97556.25;;;4.39;100.00
49841;BME280;35738;49.890;5.930;2023-02-11T11:56:15;97552.72;;;4.39;100.00
49841;BME280;35738;49.890;5.930;2023-02-11T11:58:42;97558.66;;;4.36;100.00
49841;BME280;35738;49.890;5.930;2023-02-11T12:12:00;97537.63;;;4.48;100.00
49841;BME280;35738;49.890;5.930;2023-02-11T12:25:24;97533.16;;;4.42;100.00
49841;BME280;35738;49.890;5.930;2023-02-11T12:38:31;97533.16;;;4.42;100.00
49841;BME280;35738;49.890;5.930;2023-02-11T12:44:07;97519.53;;;4.42;100.00
49841;BME280;35738;49.890;5.930;2023-02-11T12:47:05;97538.59;;;4.42;100.00
49841;BME280;35738;49.890;5.930;2023-02-11T12:52:43;97526.47;;;4.50;100.00
49841;BME280;35738;49.890;5.930;2023-02-11T12:55:19;97520.59;;;4.41;100.00
49841;BME280;35738;49.890;5.930;2023-02-11T12:57:49;97524.91;;;4.54;100.00
49841;BME280;35738;49.890;5.930;2023-02-11T13:02:59;97524.47;;;4.45;100.00
49841;BME280;35738;49.890;5.930;2023-02-11T13:10:42;97527.31;;;4.50;100.00
49841;BME280;35738;49.890;5.930;2023-02-11T13:13:20;97519.53;;;4.59;100.00
49841;BME280;35738;49.890;5.930;2023-02-11T13:16:03;97519.53;;;4.42;100.00
49841;BME280;35738;49.890;5.930;2023-02-11T13:18:46;97512.53;;;4.46;100.00
49841;BME280;35738;49.890;5.930;2023-02-11T13:23:56;97508.56;;;4.54;100.00
49841;BME280;35738;49.890;5.930;2023-02-11T13:31:36;97501.47;;;4.36;100.00
49841;BME280;35738;49.890;5.930;2023-02-11T13:34:22;97503.94;;;4.37;100.00
49841;BME280;35738;49.890;5.930;2023-02-11T13:36:56;97497.97;;;4.40;100.00
49841;BME280;35738;49.890;5.930;2023-02-11T13:39:23;97509.13;;;4.39;100.00
49841;BME280;35738;49.890;5.930;2023-02-11T13:42:01;97501.78;;;4.39;100.00
49841;BME280;35738;49.890;5.930;2023-02-11T13:44:28;97506.72;;;4.42;100.00
49841;BME280;35738;49.890;5.930;2023-02-11T13:47:00;97507.16;;;4.51;100.00
49841;BME280;35738;49.890;5.930;2023-02-11T13:49:34;97510.84;;;4.62;100.00
49841;BME280;35738;49.890;5.930;2023-02-11T13:52:05;97518.84;;;4.68;100.00
49841;BME280;35738;49.890;5.930;2023-02-11T13:54:47;97520.28;;;4.54;100.00
49841;BME280;35738;49.890;5.930;2023-02-11T14:02:36;97511.22;;;4.70;100.00
49841;BME280;35738;49.890;5.930;2023-02-11T14:06:08;97510.16;;;4.71;100.00
49841;BME280;35738;49.890;5.930;2023-02-11T14:14:32;97521.81;;;4.89;100.00
49841;BME280;35738;49.890;5.930;2023-02-11T14:38:08;97512.13;;;4.98;100.00
49841;BME280;35738;49.890;5.930;2023-02-11T14:43:40;97491.97;;;4.77;100.00
49841;BME280;35738;49.890;5.930;2023-02-11T14:46:08;97497.81;;;4.86;100.00
49841;BME280;35738;49.890;5.930;2023-02-11T14:48:36;97492.59;;;5.06;100.00
49841;BME280;35738;49.890;5.930;2023-02-11T14:51:08;97494.50;;;5.05;100.00
49841;BME280;35738;49.890;5.930;2023-02-11T14:53:36;97488.03;;;5.11;100.00
49841;BME280;35738;49.890;5.930;2023-02-11T14:56:18;97488.53;;;5.08;100.00
49841;BME280;35738;49.890;5.930;2023-02-11T14:58:47;97482.19;;;5.03;100.00
49841;BME280;35738;49.890;5.930;2023-02-11T15:01:35;97491.00;;;5.10;100.00
49841;BME280;35738;49.890;5.930;2023-02-11T15:04:30;97489.47;;;5.19;100.00
49841;BME280;35738;49.890;5.930;2023-02-11T15:07:03;97492.28;;;5.24;100.00
49841;BME280;35738;49.890;5.930;2023-02-11T15:12:04;97494.94;;;5.19;100.00
49841;BME280;35738;49.890;5.930;2023-02-11T15:14:39;97495.28;;;5.23;100.00
49841;BME280;35738;49.890;5.930;2023-02-11T15:17:07;97505.00;;;5.19;100.00
49841;BME280;35738;49.890;5.930;2023-02-11T15:19:38;97500.06;;;5.16;100.00
49841;BME280;35738;49.890;5.930;2023-02-11T15:22:18;97498.41;;;5.15;100.00
49841;BME280;35738;49.890;5.930;2023-02-11T15:25:11;97497.59;;;5.14;100.00
49841;BME280;35738;49.890;5.930;2023-02-11T15:27:45;97502.22;;;5.14;100.00
49841;BME280;35738;49.890;5.930;2023-02-11T15:32:59;97494.03;;;5.14;100.00
49841;BME280;35738;49.890;5.930;2023-02-11T15:35:37;97500.00;;;5.10;100.00
49841;BME280;35738;49.890;5.930;2023-02-11T15:38:06;97498.03;;;5.06;100.00
49841;BME280;35738;49.890;5.930;2023-02-11T15:40:35;97502.75;;;5.10;100.00
49841;BME280;35738;49.890;5.930;2023-02-11T15:43:05;97503.63;;;5.16;100.00
49841;BME280;35738;49.890;5.930;2023-02-11T15:45:35;97497.75;;;5.24;100.00
49841;BME280;35738;49.890;5.930;2023-02-11T15:50:34;97503.19;;;5.24;100.00
49841;BME280;35738;49.890;5.930;2023-02-11T15:53:16;97503.75;;;5.26;100.00
49841;BME280;35738;49.890;5.930;2023-02-11T15:55:45;97507.25;;;5.22;100.00
49841;BME280;35738;49.890;5.930;2023-02-11T15:58:14;97511.13;;;5.26;100.00
49841;BME280;35738;49.890;5.930;2023-02-11T16:00:46;97509.47;;;5.25;100.00
49841;BME280;35738;49.890;5.930;2023-02-11T16:03:22;97502.53;;;5.17;100.00
49841;BME280;35738;49.890;5.930;2023-02-11T16:05:50;97506.34;;;5.16;100.00